createdAt,value
2019-02-17T00:00:20.402Z,5.80
2019-02-17T00:01:20.344Z,5.89
2019-02-17T00:02:20.323Z,5.94
2019-02-17T00:03:20.230Z,5.90
2019-02-17T00:04:20.175Z,5.98
2019-02-17T00:05:20.122Z,5.87
2019-02-17T00:06:20.064Z,5.76
2019-02-17T00:07:20.048Z,5.73
2019-02-17T00:08:19.952Z,5.79
2019-02-17T00:09:19.895Z,5.69
2019-02-17T00:10:19.844Z,5.71
2019-02-17T00:11:19.786Z,5.68
2019-02-17T00:12:19.762Z,5.76
2019-02-17T00:13:19.709Z,5.87
2019-02-17T00:14:19.619Z,5.86
2019-02-17T00:15:19.565Z,6.01
2019-02-17T00:16:19.532Z,5.90
2019-02-17T00:17:19.453Z,5.86
2019-02-17T00:18:19.402Z,5.94
2019-02-17T00:19:19.376Z,5.90
2019-02-17T00:20:19.291Z,5.97
2019-02-17T00:21:19.260Z,5.93
2019-02-17T00:22:19.212Z,5.94
2019-02-17T00:23:19.128Z,5.91
2019-02-17T00:24:19.064Z,5.76
2019-02-17T00:25:20.484Z,5.84
2019-02-17T00:26:18.955Z,5.71
2019-02-17T00:27:18.926Z,5.82
2019-02-17T00:28:18.838Z,5.82
2019-02-17T00:29:18.786Z,5.71
2019-02-17T00:30:18.729Z,5.71
2019-02-17T00:31:18.675Z,5.68
2019-02-17T00:32:18.655Z,5.66
2019-02-17T00:33:18.592Z,5.62
2019-02-17T00:34:18.508Z,5.48
2019-02-17T00:35:18.454Z,5.48
2019-02-17T00:36:18.395Z,5.25
2019-02-17T00:37:18.338Z,5.26
2019-02-17T00:38:18.331Z,5.23
2019-02-17T00:39:18.235Z,5.15
2019-02-17T00:40:18.175Z,5.05
2019-02-17T00:41:18.118Z,4.97
2019-02-17T00:42:18.061Z,4.92
2019-02-17T00:43:18.037Z,4.84
2019-02-17T00:44:17.985Z,4.82
2019-02-17T00:45:17.894Z,4.90
2019-02-17T00:46:17.849Z,4.92
2019-02-17T00:47:17.783Z,4.92
2019-02-17T00:48:17.761Z,4.84
2019-02-17T00:49:17.705Z,4.96
2019-02-17T00:50:17.614Z,4.92
2019-02-17T00:51:17.563Z,4.99
2019-02-17T00:52:17.504Z,5.07
2019-02-17T00:53:17.446Z,5.25
2019-02-17T00:54:17.424Z,5.41
2019-02-17T00:55:17.336Z,5.35
2019-02-17T00:56:17.284Z,5.25
2019-02-17T00:57:17.254Z,5.23
2019-02-17T00:58:17.169Z,5.32
2019-02-17T00:59:17.114Z,5.46
2019-02-17T01:00:17.056Z,5.35
2019-02-17T01:01:17.039Z,5.47
2019-02-17T01:02:16.946Z,5.46
2019-02-17T01:03:16.891Z,5.46
2019-02-17T01:04:16.836Z,5.38
2019-02-17T01:05:16.785Z,5.44
2019-02-17T01:06:16.754Z,5.48
2019-02-17T01:07:16.670Z,5.56
2019-02-17T01:08:16.617Z,5.68
2019-02-17T01:09:16.597Z,5.80
2019-02-17T01:10:16.500Z,5.71
2019-02-17T01:11:16.445Z,5.87
2019-02-17T01:12:16.389Z,5.90
2019-02-17T01:13:16.331Z,5.83
2019-02-17T01:14:16.305Z,5.91
2019-02-17T01:15:16.250Z,5.90
2019-02-17T01:16:16.194Z,5.91
2019-02-17T01:17:16.110Z,6.02
2019-02-17T01:18:16.056Z,6.05
2019-02-17T01:19:15.994Z,6.05
2019-02-17T01:20:15.948Z,6.02
2019-02-17T01:21:15.914Z,6.02
2019-02-17T01:22:15.826Z,5.94
2019-02-17T01:23:15.770Z,5.91
2019-02-17T01:24:15.716Z,5.86
2019-02-17T01:25:15.663Z,5.83
2019-02-17T01:26:15.634Z,5.76
2019-02-17T01:27:15.548Z,5.68
2019-02-17T01:28:15.491Z,5.69
2019-02-17T01:29:20.478Z,5.62
2019-02-17T01:30:15.381Z,5.68
2019-02-17T01:31:15.358Z,5.75
2019-02-17T01:32:15.268Z,5.72
2019-02-17T01:33:15.209Z,5.61
2019-02-17T01:34:15.190Z,5.59
2019-02-17T01:35:15.100Z,5.65
2019-02-17T01:36:15.044Z,5.59
2019-02-17T01:37:14.987Z,5.59
2019-02-17T01:38:14.931Z,5.57
2019-02-17T01:39:14.915Z,5.56
2019-02-17T01:40:14.822Z,5.57
2019-02-17T01:41:14.762Z,5.68
2019-02-17T01:42:14.707Z,5.61
2019-02-17T01:43:14.653Z,5.71
2019-02-17T01:44:14.631Z,5.76
2019-02-17T01:45:14.544Z,5.69
2019-02-17T01:46:14.484Z,5.75
2019-02-17T01:47:14.428Z,5.62
2019-02-17T01:48:14.404Z,5.53
2019-02-17T01:49:14.350Z,5.47
2019-02-17T01:50:14.258Z,5.47
2019-02-17T01:51:14.208Z,5.33
2019-02-17T01:52:14.181Z,5.32
2019-02-17T01:53:14.089Z,5.28
2019-02-17T01:54:14.035Z,5.25
2019-02-17T01:55:14.012Z,5.28
2019-02-17T01:56:13.958Z,5.25
2019-02-17T01:57:13.869Z,5.21
2019-02-17T01:58:13.811Z,5.29
2019-02-17T01:59:13.796Z,5.28
2019-02-17T02:00:13.704Z,5.29
2019-02-17T02:01:13.642Z,5.28
2019-02-17T02:02:13.588Z,5.36
2019-02-17T02:03:13.532Z,5.36
2019-02-17T02:04:13.508Z,5.39
2019-02-17T02:05:13.423Z,5.39
2019-02-17T02:06:13.367Z,5.47
2019-02-17T02:07:13.342Z,5.41
2019-02-17T02:08:13.252Z,5.39
2019-02-17T02:09:13.195Z,5.41
2019-02-17T02:10:13.176Z,5.53
2019-02-17T02:11:13.086Z,5.38
2019-02-17T02:12:13.061Z,5.28
2019-02-17T02:13:12.971Z,5.14
2019-02-17T02:14:12.914Z,5.10
2019-02-17T02:15:12.861Z,5.20
2019-02-17T02:16:12.834Z,5.10
2019-02-17T02:17:12.744Z,5.10
2019-02-17T02:18:12.721Z,5.11
2019-02-17T02:19:12.639Z,5.12
2019-02-17T02:20:12.580Z,5.15
2019-02-17T02:21:12.525Z,5.11
2019-02-17T02:22:12.467Z,5.10
2019-02-17T02:23:12.439Z,5.12
2019-02-17T02:24:12.356Z,4.99
2019-02-17T02:25:12.299Z,4.94
2019-02-17T02:26:12.244Z,4.97
2019-02-17T02:27:12.184Z,4.99
2019-02-17T02:28:12.167Z,4.99
2019-02-17T02:29:12.072Z,4.96
2019-02-17T02:30:12.017Z,5.05
2019-02-17T02:31:11.966Z,4.90
2019-02-17T02:32:11.904Z,4.92
2019-02-17T02:33:11.881Z,4.80
2019-02-17T02:34:11.792Z,4.73
2019-02-17T02:35:11.741Z,4.71
2019-02-17T02:36:11.680Z,4.66
2019-02-17T02:37:11.621Z,4.71
2019-02-17T02:38:13.546Z,4.58
2019-02-17T02:39:11.510Z,4.56
2019-02-17T02:40:11.459Z,4.55
2019-02-17T02:41:11.399Z,4.53
2019-02-17T02:42:11.342Z,4.45
2019-02-17T02:43:11.343Z,4.45
2019-02-17T02:44:11.229Z,4.52
2019-02-17T02:45:11.170Z,4.53
2019-02-17T02:46:11.122Z,4.55
2019-02-17T02:47:11.058Z,4.67
2019-02-17T02:48:11.035Z,4.68
2019-02-17T02:49:10.947Z,4.73
2019-02-17T02:50:10.895Z,4.75
2019-02-17T02:51:10.891Z,4.82
2019-02-17T02:52:10.779Z,4.74
2019-02-17T02:53:10.720Z,4.70
2019-02-17T02:54:10.673Z,4.73
2019-02-17T02:55:10.608Z,4.78
2019-02-17T02:56:10.597Z,4.82
2019-02-17T02:57:10.494Z,4.75
2019-02-17T02:58:10.439Z,4.82
2019-02-17T02:59:10.382Z,4.82
2019-02-17T03:00:10.352Z,4.80
2019-02-17T03:01:10.306Z,4.90
2019-02-17T03:02:10.214Z,4.80
2019-02-17T03:03:10.196Z,5.00
2019-02-17T03:04:10.101Z,4.96
2019-02-17T03:05:10.045Z,4.90
2019-02-17T03:06:09.991Z,5.00
2019-02-17T03:07:09.932Z,4.99
2019-02-17T03:08:09.917Z,4.87
2019-02-17T03:09:09.822Z,4.77
2019-02-17T03:10:09.766Z,4.71
2019-02-17T03:11:09.709Z,4.71
2019-02-17T03:12:09.659Z,4.68
2019-02-17T03:13:09.630Z,4.77
2019-02-17T03:14:09.534Z,4.73
2019-02-17T03:15:09.480Z,4.68
2019-02-17T03:16:09.422Z,4.71
2019-02-17T03:17:09.364Z,4.74
2019-02-17T03:18:09.357Z,4.63
2019-02-17T03:19:09.254Z,4.60
2019-02-17T03:20:09.200Z,4.59
2019-02-17T03:21:09.138Z,4.50
2019-02-17T03:22:09.081Z,4.55
2019-02-17T03:23:09.059Z,4.56
2019-02-17T03:24:08.970Z,4.41
2019-02-17T03:25:08.909Z,4.41
2019-02-17T03:26:08.855Z,4.37
2019-02-17T03:27:08.830Z,4.35
2019-02-17T03:28:08.741Z,4.24
2019-02-17T03:29:08.682Z,4.35
2019-02-17T03:30:08.677Z,4.38
2019-02-17T03:31:08.569Z,4.40
2019-02-17T03:32:08.558Z,4.26
2019-02-17T03:33:08.460Z,4.37
2019-02-17T03:34:08.407Z,4.34
2019-02-17T03:35:08.347Z,4.37
2019-02-17T03:36:08.287Z,4.31
2019-02-17T03:37:08.260Z,4.35
2019-02-17T03:38:08.175Z,4.42
2019-02-17T03:39:08.116Z,4.44
2019-02-17T03:40:08.068Z,4.40
2019-02-17T03:41:08.008Z,4.48
2019-02-17T03:42:07.984Z,4.50
2019-02-17T03:43:07.888Z,4.53
2019-02-17T03:44:07.838Z,4.56
2019-02-17T03:45:07.782Z,4.68
2019-02-17T03:46:07.719Z,4.82
2019-02-17T03:47:07.694Z,4.77
2019-02-17T03:48:07.614Z,4.80
2019-02-17T03:49:07.552Z,4.71
2019-02-17T03:50:07.492Z,4.73
2019-02-17T03:51:07.450Z,4.84
2019-02-17T03:52:07.411Z,4.80
2019-02-17T03:53:07.355Z,4.93
2019-02-17T03:54:07.264Z,4.97
2019-02-17T03:55:07.225Z,4.99
2019-02-17T03:56:07.153Z,4.94
2019-02-17T03:57:07.106Z,4.92
2019-02-17T03:58:07.063Z,4.92
2019-02-17T03:59:06.982Z,4.86
2019-02-17T04:00:16.496Z,4.84
2019-02-17T04:01:06.903Z,4.78
2019-02-17T04:02:06.812Z,4.74
2019-02-17T04:03:06.759Z,4.53
2019-02-17T04:04:06.702Z,4.48
2019-02-17T04:05:06.640Z,4.52
2019-02-17T04:06:06.627Z,4.44
2019-02-17T04:07:06.527Z,4.44
2019-02-17T04:08:06.473Z,4.49
2019-02-17T04:09:06.414Z,4.45
2019-02-17T04:10:06.359Z,4.40
2019-02-17T04:11:06.336Z,4.31
2019-02-17T04:12:06.243Z,4.26
2019-02-17T04:13:06.186Z,4.20
2019-02-17T04:14:06.162Z,4.13
2019-02-17T04:15:06.072Z,3.95
2019-02-17T04:16:06.017Z,3.96
2019-02-17T04:17:05.990Z,4.01
2019-02-17T04:18:05.904Z,3.94
2019-02-17T04:19:05.848Z,3.95
2019-02-17T04:20:05.790Z,3.88
2019-02-17T04:21:05.837Z,3.91
2019-02-17T04:22:05.724Z,3.83
2019-02-17T04:23:05.618Z,3.81
2019-02-17T04:24:05.565Z,3.76
2019-02-17T04:25:05.514Z,3.78
2019-02-17T04:26:05.448Z,3.70
2019-02-17T04:27:05.434Z,3.76
2019-02-17T04:28:05.335Z,3.74
2019-02-17T04:29:05.277Z,3.83
2019-02-17T04:30:05.219Z,3.86
2019-02-17T04:31:05.162Z,3.91
2019-02-17T04:32:05.139Z,3.91
2019-02-17T04:33:05.050Z,4.08
2019-02-17T04:34:05.023Z,4.32
2019-02-17T04:35:04.936Z,4.62
2019-02-17T04:36:04.879Z,4.71
2019-02-17T04:37:04.822Z,4.80
2019-02-17T04:38:04.768Z,4.73
2019-02-17T04:39:04.741Z,4.53
2019-02-17T04:40:04.652Z,4.42
2019-02-17T04:41:04.590Z,4.35
2019-02-17T04:42:04.566Z,4.34
2019-02-17T04:43:04.514Z,4.28
2019-02-17T04:44:04.423Z,4.23
2019-02-17T04:45:04.363Z,4.17
2019-02-17T04:46:04.309Z,4.22
2019-02-17T04:47:04.284Z,4.30
2019-02-17T04:48:04.196Z,4.41
2019-02-17T04:49:04.139Z,4.30
2019-02-17T04:50:04.079Z,4.24
2019-02-17T04:51:04.023Z,4.35
2019-02-17T04:52:04.005Z,4.20
2019-02-17T04:53:03.907Z,4.19
2019-02-17T04:54:03.852Z,4.23
2019-02-17T04:55:03.794Z,4.35
2019-02-17T04:56:03.739Z,4.37
2019-02-17T04:57:03.733Z,4.40
2019-02-17T04:58:03.624Z,4.35
2019-02-17T04:59:03.569Z,4.40
2019-02-17T05:00:03.509Z,4.35
2019-02-17T05:01:03.465Z,4.40
2019-02-17T05:02:03.446Z,4.32
2019-02-17T05:03:03.378Z,4.35
2019-02-17T05:04:03.283Z,4.40
2019-02-17T05:05:03.224Z,4.38
2019-02-17T05:06:03.168Z,4.35
2019-02-17T05:07:03.115Z,4.16
2019-02-17T05:08:03.096Z,4.16
2019-02-17T05:09:02.996Z,4.13
2019-02-17T05:10:02.979Z,4.08
2019-02-17T05:11:02.887Z,4.16
2019-02-17T05:12:02.828Z,4.10
2019-02-17T05:13:02.767Z,4.20
2019-02-17T05:14:02.710Z,4.19
2019-02-17T05:15:02.708Z,4.08
2019-02-17T05:16:02.599Z,3.96
2019-02-17T05:17:02.543Z,3.99
2019-02-17T05:18:02.484Z,4.01
2019-02-17T05:19:02.427Z,4.16
2019-02-17T05:20:02.404Z,4.08
2019-02-17T05:21:02.313Z,4.20
2019-02-17T05:22:02.294Z,4.22
2019-02-17T05:23:02.211Z,4.14
2019-02-17T05:24:02.143Z,4.19
2019-02-17T05:25:02.093Z,4.05
2019-02-17T05:26:02.030Z,3.98
2019-02-17T05:27:02.006Z,3.95
2019-02-17T05:28:01.917Z,3.92
2019-02-17T05:29:01.859Z,3.88
2019-02-17T05:30:01.800Z,4.01
2019-02-17T05:31:01.775Z,4.19
2019-02-17T05:32:01.689Z,4.19
2019-02-17T05:33:01.638Z,4.34
2019-02-17T05:34:01.604Z,4.42
2019-02-17T05:35:01.517Z,4.58
2019-02-17T05:36:01.458Z,4.58
2019-02-17T05:37:01.432Z,4.56
2019-02-17T05:38:01.350Z,4.68
2019-02-17T05:39:01.292Z,4.77
2019-02-17T05:40:01.238Z,4.71
2019-02-17T05:41:01.183Z,4.75
2019-02-17T05:42:01.158Z,4.84
2019-02-17T05:43:01.061Z,4.78
2019-02-17T05:44:01.034Z,4.90
2019-02-17T05:45:00.944Z,4.94
2019-02-17T05:46:00.889Z,4.89
2019-02-17T05:47:00.864Z,5.04
2019-02-17T05:48:00.783Z,4.82
2019-02-17T05:49:00.718Z,4.80
2019-02-17T05:50:00.746Z,4.82
2019-02-17T05:51:00.606Z,4.75
2019-02-17T05:52:00.546Z,4.73
2019-02-17T05:53:00.494Z,4.71
2019-02-17T05:54:00.470Z,4.87
2019-02-17T05:55:00.382Z,5.00
2019-02-17T05:56:00.322Z,5.07
2019-02-17T05:57:00.264Z,5.08
2019-02-17T05:58:00.241Z,5.18
2019-02-17T05:59:00.155Z,5.26
2019-02-17T06:00:00.516Z,5.17
2019-02-17T06:01:03.956Z,5.25
2019-02-17T06:01:59.976Z,5.28
2019-02-17T06:02:59.925Z,5.57
2019-02-17T06:03:59.866Z,5.53
2019-02-17T06:04:59.809Z,5.48
2019-02-17T06:05:59.786Z,5.28
2019-02-17T06:06:59.704Z,5.10
2019-02-17T06:07:59.636Z,5.08
2019-02-17T06:08:59.582Z,4.87
2019-02-17T06:09:59.523Z,4.82
2019-02-17T06:10:59.505Z,4.60
2019-02-17T06:11:59.411Z,4.45
2019-02-17T06:12:59.351Z,4.26
2019-02-17T06:13:59.297Z,4.19
2019-02-17T06:14:59.270Z,4.16
2019-02-17T06:15:59.185Z,4.19
2019-02-17T06:16:59.127Z,4.08
2019-02-17T06:17:59.110Z,4.01
2019-02-17T06:18:59.019Z,4.01
2019-02-17T06:19:58.959Z,3.92
2019-02-17T06:20:58.901Z,3.88
2019-02-17T06:21:58.839Z,3.88
2019-02-17T06:22:58.815Z,3.87
2019-02-17T06:23:58.729Z,3.88
2019-02-17T06:24:58.703Z,3.87
2019-02-17T06:25:58.611Z,3.86
2019-02-17T06:26:58.557Z,3.88
2019-02-17T06:27:58.497Z,3.87
2019-02-17T06:28:58.440Z,3.87
2019-02-17T06:29:58.422Z,3.86
2019-02-17T06:30:58.331Z,4.01
2019-02-17T06:31:58.267Z,3.92
2019-02-17T06:32:58.213Z,3.98
2019-02-17T06:33:58.184Z,3.86
2019-02-17T06:34:58.098Z,3.84
2019-02-17T06:35:58.078Z,3.83
2019-02-17T06:36:57.992Z,3.98
2019-02-17T06:37:57.925Z,3.96
2019-02-17T06:38:57.904Z,3.92
2019-02-17T06:39:57.812Z,3.96
2019-02-17T06:40:57.756Z,3.92
2019-02-17T06:41:57.699Z,3.87
2019-02-17T06:42:57.671Z,3.86
2019-02-17T06:43:57.593Z,3.73
2019-02-17T06:44:57.532Z,3.70
2019-02-17T06:45:57.501Z,3.63
2019-02-17T06:46:57.420Z,3.78
2019-02-17T06:47:57.353Z,3.74
2019-02-17T06:48:57.332Z,3.63
2019-02-17T06:49:57.241Z,3.58
2019-02-17T06:50:57.185Z,3.65
2019-02-17T06:51:57.125Z,3.69
2019-02-17T06:52:57.066Z,3.65
2019-02-17T06:53:57.042Z,3.63
2019-02-17T06:54:56.958Z,3.70
2019-02-17T06:55:56.899Z,3.66
2019-02-17T06:56:56.869Z,3.83
2019-02-17T06:57:56.781Z,3.78
2019-02-17T06:58:56.724Z,3.83
2019-02-17T06:59:56.702Z,3.86
2019-02-17T07:00:56.617Z,3.84
2019-02-17T07:01:56.555Z,3.87
2019-02-17T07:02:56.530Z,3.99
2019-02-17T07:03:56.439Z,4.04
2019-02-17T07:04:56.397Z,4.05
2019-02-17T07:05:56.833Z,4.20
2019-02-17T07:06:56.273Z,4.31
2019-02-17T07:07:56.252Z,4.49
2019-02-17T07:08:56.151Z,4.70
2019-02-17T07:09:56.100Z,4.99
2019-02-17T07:10:56.036Z,5.17
2019-02-17T07:11:56.868Z,5.11
2019-02-17T07:12:55.919Z,5.12
2019-02-17T07:13:55.866Z,5.54
2019-02-17T07:14:55.810Z,5.94
2019-02-17T07:15:55.751Z,6.42
2019-02-17T07:16:55.727Z,6.87
2019-02-17T07:17:55.642Z,7.40
2019-02-17T07:18:55.587Z,7.82
2019-02-17T07:19:55.534Z,8.24
2019-02-17T07:20:55.475Z,8.73
2019-02-17T07:21:55.453Z,9.34
2019-02-17T07:22:55.371Z,9.74
2019-02-17T07:23:55.349Z,10.22
2019-02-17T07:24:55.264Z,10.63
2019-02-17T07:25:55.213Z,10.89
2019-02-17T07:26:55.165Z,11.15
2019-02-17T07:27:55.137Z,11.35
2019-02-17T07:28:55.096Z,11.19
2019-02-17T07:29:55.013Z,10.84
2019-02-17T07:30:54.972Z,10.49
2019-02-17T07:31:54.920Z,10.49
2019-02-17T07:32:54.869Z,10.41
2019-02-17T07:33:54.860Z,10.22
2019-02-17T07:34:54.780Z,9.89
2019-02-17T07:35:54.728Z,9.80
2019-02-17T07:36:54.689Z,9.72
2019-02-17T07:37:54.638Z,9.66
2019-02-17T07:38:54.627Z,9.92
2019-02-17T07:39:54.581Z,9.83
2019-02-17T07:40:54.501Z,9.95
2019-02-17T07:41:54.452Z,10.07
2019-02-17T07:42:54.405Z,10.49
2019-02-17T07:43:54.364Z,10.74
2019-02-17T07:44:54.370Z,11.15
2019-02-17T07:45:54.270Z,11.35
2019-02-17T07:46:54.225Z,11.59
2019-02-17T07:47:54.184Z,11.95
2019-02-17T07:48:54.157Z,11.80
2019-02-17T07:49:54.127Z,11.55
2019-02-17T07:50:54.048Z,11.51
2019-02-17T07:51:54.048Z,11.32
2019-02-17T07:52:53.961Z,11.17
2019-02-17T07:53:53.920Z,11.17
2019-02-17T07:54:53.875Z,10.99
2019-02-17T07:55:53.833Z,10.64
2019-02-17T07:56:53.822Z,10.69
2019-02-17T07:57:53.749Z,10.94
2019-02-17T07:58:53.703Z,11.45
2019-02-17T07:59:53.661Z,11.54
2019-02-17T08:00:53.618Z,11.97
2019-02-17T08:01:53.608Z,11.68
2019-02-17T08:02:53.533Z,11.72
2019-02-17T08:03:53.490Z,11.68
2019-02-17T08:04:53.476Z,11.81
2019-02-17T08:05:53.408Z,11.88
2019-02-17T08:06:53.369Z,11.80
2019-02-17T08:07:53.324Z,11.87
2019-02-17T08:08:53.281Z,12.07
2019-02-17T08:09:53.278Z,12.40
2019-02-17T08:11:01.751Z,12.20
2019-02-17T08:11:53.155Z,12.13
2019-02-17T08:12:53.141Z,12.07
2019-02-17T08:13:53.071Z,12.22
2019-02-17T08:14:53.054Z,11.91
2019-02-17T08:15:52.994Z,12.13
2019-02-17T08:16:52.948Z,12.12
2019-02-17T08:17:52.940Z,12.09
2019-02-17T08:18:52.909Z,12.29
2019-02-17T08:19:52.825Z,12.18
2019-02-17T08:20:52.785Z,12.25
2019-02-17T08:21:52.740Z,12.40
2019-02-17T08:22:52.730Z,12.91
2019-02-17T08:23:52.660Z,12.95
2019-02-17T08:24:52.617Z,13.04
2019-02-17T08:25:52.608Z,13.04
2019-02-17T08:26:52.539Z,13.27
2019-02-17T08:27:52.493Z,13.33
2019-02-17T08:28:52.456Z,13.78
2019-02-17T08:29:52.443Z,14.22
2019-02-17T08:30:52.375Z,13.99
2019-02-17T08:31:55.969Z,13.93
2019-02-17T08:32:52.289Z,13.99
2019-02-17T08:33:52.283Z,14.23
2019-02-17T08:34:53.211Z,15.06
2019-02-17T08:35:52.174Z,15.42
2019-02-17T08:36:52.128Z,15.52
2019-02-17T08:37:52.106Z,15.47
2019-02-17T08:38:52.180Z,15.62
2019-02-17T08:39:52.012Z,15.67
2019-02-17T08:40:51.973Z,15.92
2019-02-17T08:41:51.935Z,15.80
2019-02-17T08:42:51.896Z,15.61
2019-02-17T08:43:51.917Z,15.40
2019-02-17T08:44:51.848Z,15.39
2019-02-17T08:45:51.778Z,15.25
2019-02-17T08:46:51.737Z,15.25
2019-02-17T08:47:51.700Z,15.14
2019-02-17T08:48:51.660Z,15.17
2019-02-17T08:49:51.654Z,15.04
2019-02-17T08:50:51.581Z,15.09
2019-02-17T08:51:51.545Z,14.88
2019-02-17T08:52:51.538Z,14.77
2019-02-17T08:53:51.466Z,14.73
2019-02-17T08:54:51.426Z,14.86
2019-02-17T08:55:51.388Z,15.10
2019-02-17T08:56:51.381Z,15.18
2019-02-17T08:57:51.310Z,15.18
2019-02-17T08:58:51.271Z,15.15
2019-02-17T08:59:51.234Z,15.31
2019-02-17T09:00:51.197Z,15.51
2019-02-17T09:01:51.188Z,15.62
2019-02-17T09:02:51.151Z,15.67
2019-02-17T09:03:51.073Z,15.59
2019-02-17T09:04:51.069Z,15.59
2019-02-17T09:05:50.997Z,15.83
2019-02-17T09:06:50.956Z,15.95
2019-02-17T09:07:50.917Z,16.20
2019-02-17T09:08:50.910Z,16.41
2019-02-17T09:09:50.838Z,16.71
2019-02-17T09:10:50.830Z,16.79
2019-02-17T09:11:50.766Z,17.02
2019-02-17T09:12:50.728Z,16.94
2019-02-17T09:13:50.687Z,17.30
2019-02-17T09:14:50.644Z,17.29
2019-02-17T09:15:50.639Z,17.11
2019-02-17T09:16:50.568Z,17.06
2019-02-17T09:17:50.528Z,17.15
2019-02-17T09:18:50.490Z,17.02
2019-02-17T09:19:50.454Z,17.12
2019-02-17T09:20:50.455Z,17.16
2019-02-17T09:21:50.376Z,17.68
2019-02-17T09:22:50.335Z,17.67
2019-02-17T09:23:50.301Z,17.94
2019-02-17T09:24:50.260Z,18.19
2019-02-17T09:25:50.255Z,17.94
2019-02-17T09:26:50.181Z,17.70
2019-02-17T09:27:50.144Z,17.68
2019-02-17T09:28:50.110Z,17.89
2019-02-17T09:29:50.073Z,18.05
2019-02-17T09:30:50.075Z,18.49
2019-02-17T09:31:49.994Z,18.59
2019-02-17T09:32:49.958Z,18.58
2019-02-17T09:33:49.920Z,18.80
2019-02-17T09:34:49.885Z,19.08
2019-02-17T09:35:49.979Z,19.08
2019-02-17T09:36:49.804Z,18.93
2019-02-17T09:37:49.768Z,18.89
2019-02-17T09:38:49.729Z,19.22
2019-02-17T09:39:49.695Z,19.29
2019-02-17T09:40:49.704Z,19.33
2019-02-17T09:41:49.617Z,19.09
2019-02-17T09:42:49.581Z,18.99
2019-02-17T09:43:49.564Z,19.02
2019-02-17T09:44:49.506Z,18.96
2019-02-17T09:45:49.502Z,18.98
2019-02-17T09:46:49.466Z,18.90
2019-02-17T09:47:49.400Z,18.89
2019-02-17T09:48:49.590Z,19.22
2019-02-17T09:49:49.331Z,19.66
2019-02-17T09:50:49.284Z,19.58
2019-02-17T09:51:49.278Z,19.89
2019-02-17T09:52:49.207Z,19.81
2019-02-17T09:53:49.173Z,19.85
2019-02-17T09:54:49.135Z,19.79
2019-02-17T09:55:49.098Z,19.74
2019-02-17T09:56:49.095Z,20.04
2019-02-17T09:57:49.024Z,19.91
2019-02-17T09:58:49.028Z,20.09
2019-02-17T09:59:48.972Z,19.76
2019-02-17T10:00:48.912Z,19.56
2019-02-17T10:01:48.877Z,19.89
2019-02-17T10:02:48.843Z,20.10
2019-02-17T10:03:48.853Z,20.28
2019-02-17T10:04:48.762Z,20.65
2019-02-17T10:05:48.725Z,20.59
2019-02-17T10:06:48.686Z,20.87
2019-02-17T10:07:48.651Z,20.69
2019-02-17T10:08:48.642Z,20.67
2019-02-17T10:09:48.573Z,21.00
2019-02-17T10:10:48.540Z,21.25
2019-02-17T10:11:48.497Z,21.45
2019-02-17T10:12:48.502Z,21.54
2019-02-17T10:13:48.421Z,21.24
2019-02-17T10:14:48.381Z,21.00
2019-02-17T10:15:48.345Z,20.85
2019-02-17T10:16:48.306Z,21.25
2019-02-17T10:17:48.309Z,20.97
2019-02-17T10:18:48.229Z,20.81
2019-02-17T10:19:48.194Z,20.81
2019-02-17T10:20:48.153Z,20.80
2019-02-17T10:21:48.113Z,20.92
2019-02-17T10:22:48.113Z,20.88
2019-02-17T10:23:48.034Z,20.99
2019-02-17T10:24:48.008Z,21.05
2019-02-17T10:25:47.997Z,21.03
2019-02-17T10:26:48.024Z,20.85
2019-02-17T10:27:48.049Z,20.36
2019-02-17T10:28:48.002Z,19.74
2019-02-17T10:29:47.800Z,19.74
2019-02-17T10:30:47.989Z,19.40
2019-02-17T10:31:47.751Z,19.36
2019-02-17T10:32:47.682Z,19.16
2019-02-17T10:33:47.641Z,19.02
2019-02-17T10:34:47.600Z,19.16
2019-02-17T10:35:47.590Z,19.22
2019-02-17T10:36:47.544Z,19.04
2019-02-17T10:37:47.479Z,18.90
2019-02-17T10:38:47.440Z,18.75
2019-02-17T10:39:47.397Z,18.26
2019-02-17T10:40:47.402Z,18.07
2019-02-17T10:41:47.314Z,18.08
2019-02-17T10:42:47.274Z,18.08
2019-02-17T10:43:47.235Z,17.98
2019-02-17T10:44:47.190Z,18.19
2019-02-17T10:45:47.180Z,18.04
2019-02-17T10:46:47.106Z,17.95
2019-02-17T10:47:47.100Z,18.04
2019-02-17T10:48:47.066Z,18.13
2019-02-17T10:49:46.984Z,17.94
2019-02-17T10:50:46.969Z,17.94
2019-02-17T10:51:47.053Z,17.83
2019-02-17T10:52:47.033Z,17.76
2019-02-17T10:53:46.846Z,17.85
2019-02-17T10:54:47.044Z,17.79
2019-02-17T10:55:46.728Z,17.56
2019-02-17T10:56:46.682Z,17.48
2019-02-17T10:57:46.641Z,17.71
2019-02-17T10:58:46.635Z,17.76
2019-02-17T10:59:46.553Z,17.59
2019-02-17T11:00:46.512Z,17.51
2019-02-17T11:01:46.465Z,17.04
2019-02-17T11:02:47.632Z,16.84
2019-02-17T11:03:46.438Z,16.89
2019-02-17T11:04:46.336Z,16.81
2019-02-17T11:05:46.295Z,17.02
2019-02-17T11:06:46.250Z,17.04
2019-02-17T11:07:46.244Z,16.38
2019-02-17T11:08:46.159Z,16.21
2019-02-17T11:09:46.126Z,16.42
2019-02-17T11:10:46.073Z,16.43
2019-02-17T11:11:46.060Z,16.39
2019-02-17T11:12:45.982Z,16.53
2019-02-17T11:13:46.508Z,16.41
2019-02-17T11:14:45.895Z,16.60
2019-02-17T11:15:45.857Z,16.38
2019-02-17T11:16:45.837Z,16.68
2019-02-17T11:17:45.765Z,16.90
2019-02-17T11:18:45.718Z,16.75
2019-02-17T11:19:45.703Z,16.54
2019-02-17T11:20:45.626Z,16.41
2019-02-17T11:21:45.621Z,16.17
2019-02-17T11:22:45.538Z,16.17
2019-02-17T11:23:45.504Z,16.33
2019-02-17T11:24:45.487Z,16.23
2019-02-17T11:25:45.406Z,16.57
2019-02-17T11:26:45.358Z,17.02
2019-02-17T11:27:45.313Z,16.87
2019-02-17T11:28:45.277Z,16.76
2019-02-17T11:29:45.256Z,16.86
2019-02-17T11:30:45.180Z,17.06
2019-02-17T11:31:45.168Z,16.74
2019-02-17T11:32:45.089Z,16.93
2019-02-17T11:33:45.043Z,16.86
2019-02-17T11:34:44.998Z,17.08
2019-02-17T11:35:45.019Z,17.48
2019-02-17T11:36:44.907Z,17.56
2019-02-17T11:37:45.274Z,17.51
2019-02-17T11:38:44.820Z,17.45
2019-02-17T11:39:44.774Z,17.51
2019-02-17T11:40:44.763Z,17.54
2019-02-17T11:41:44.684Z,17.82
2019-02-17T11:42:44.639Z,17.98
2019-02-17T11:43:44.632Z,18.00
2019-02-17T11:44:44.551Z,18.18
2019-02-17T11:45:44.505Z,18.19
2019-02-17T11:46:44.458Z,18.37
2019-02-17T11:47:44.415Z,18.33
2019-02-17T11:48:44.394Z,18.03
2019-02-17T11:49:44.325Z,17.72
2019-02-17T11:50:44.281Z,17.70
2019-02-17T11:51:44.236Z,17.64
2019-02-17T11:52:44.224Z,17.60
2019-02-17T11:53:44.145Z,17.76
2019-02-17T11:54:44.105Z,17.86
2019-02-17T11:55:44.064Z,18.04
2019-02-17T11:56:44.045Z,17.72
2019-02-17T11:57:43.973Z,17.57
2019-02-17T11:58:43.921Z,17.67
2019-02-17T11:59:43.882Z,17.54
2019-02-17T12:00:43.834Z,17.39
2019-02-17T12:01:43.824Z,17.41
2019-02-17T12:02:43.770Z,17.42
2019-02-17T12:03:43.730Z,17.31
2019-02-17T12:04:43.653Z,17.42
2019-02-17T12:05:43.608Z,17.39
2019-02-17T12:06:43.571Z,17.42
2019-02-17T12:07:43.518Z,17.45
2019-02-17T12:08:43.509Z,17.52
2019-02-17T12:09:43.430Z,17.63
2019-02-17T12:10:43.383Z,17.67
2019-02-17T12:11:43.338Z,17.70
2019-02-17T12:12:43.372Z,17.64
2019-02-17T12:13:43.281Z,17.36
2019-02-17T12:14:43.204Z,17.38
2019-02-17T12:15:43.209Z,17.63
2019-02-17T12:16:43.119Z,17.83
2019-02-17T12:17:43.070Z,17.94
2019-02-17T12:18:43.025Z,18.31
2019-02-17T12:19:42.990Z,18.41
2019-02-17T12:20:42.969Z,18.44
2019-02-17T12:21:42.892Z,18.74
2019-02-17T12:22:42.911Z,18.80
2019-02-17T12:23:42.845Z,18.80
2019-02-17T12:24:42.834Z,19.04
2019-02-17T12:25:42.714Z,18.99
2019-02-17T12:26:42.674Z,18.89
2019-02-17T12:27:42.637Z,18.86
2019-02-17T12:28:42.615Z,18.73
2019-02-17T12:29:42.534Z,18.78
2019-02-17T12:30:42.487Z,18.86
2019-02-17T12:31:42.446Z,18.68
2019-02-17T12:32:42.398Z,18.62
2019-02-17T12:33:42.385Z,18.26
2019-02-17T12:34:42.312Z,18.33
2019-02-17T12:35:42.268Z,18.19
2019-02-17T12:36:42.254Z,18.35
2019-02-17T12:37:42.176Z,18.40
2019-02-17T12:38:42.129Z,18.40
2019-02-17T12:39:42.102Z,18.43
2019-02-17T12:40:42.076Z,18.52
2019-02-17T12:41:42.118Z,18.47
2019-02-17T12:42:41.953Z,18.66
2019-02-17T12:43:41.909Z,18.74
2019-02-17T12:44:41.870Z,18.66
2019-02-17T12:45:41.859Z,18.59
2019-02-17T12:46:41.779Z,18.80
2019-02-17T12:47:41.732Z,18.75
2019-02-17T12:48:41.719Z,18.90
2019-02-17T12:49:41.645Z,18.98
2019-02-17T12:50:41.634Z,18.93
2019-02-17T12:51:41.554Z,18.60
2019-02-17T12:52:47.055Z,18.55
2019-02-17T12:53:41.494Z,18.73
2019-02-17T12:54:41.421Z,18.73
2019-02-17T12:55:41.397Z,18.75
2019-02-17T12:56:41.331Z,18.58
2019-02-17T12:57:41.284Z,18.59
2019-02-17T12:58:41.271Z,18.56
2019-02-17T12:59:41.197Z,18.60
2019-02-17T13:00:41.151Z,18.47
2019-02-17T13:01:41.106Z,18.47
2019-02-17T13:02:41.113Z,18.49
2019-02-17T13:03:41.018Z,18.26
2019-02-17T13:04:40.972Z,18.23
2019-02-17T13:05:40.930Z,18.22
2019-02-17T13:06:40.883Z,18.04